createdAt,value
2022-10-11T00:13:39.146Z,14.87
2022-10-11T00:16:19.227Z,14.86
2022-10-11T00:18:52.372Z,14.87
2022-10-11T00:21:18.990Z,14.89
2022-10-11T00:23:59.165Z,14.89
2022-10-11T00:26:32.340Z,14.90
2022-10-11T00:29:07.162Z,14.92
2022-10-11T00:39:00.145Z,14.91
2022-10-11T00:41:40.194Z,14.90
2022-10-11T00:44:19.213Z,14.91
2022-10-11T00:47:06.418Z,14.90
2022-10-11T00:49:44.996Z,14.90
2022-10-11T00:52:34.192Z,14.89
2022-10-11T01:05:49.173Z,14.87
2022-10-11T01:08:23.312Z,14.87
2022-10-11T01:10:57.229Z,14.86
2022-10-11T01:13:47.176Z,14.86
2022-10-11T01:16:38.166Z,14.84
2022-10-11T01:33:29.137Z,14.77
2022-10-11T01:36:20.170Z,14.76
2022-10-11T01:39:01.046Z,14.77
2022-10-11T01:41:49.183Z,14.78
2022-10-11T01:44:25.989Z,14.78
2022-10-11T01:47:07.217Z,14.77
2022-10-11T02:00:23.166Z,14.75
2022-10-11T02:03:20.290Z,14.74
2022-10-11T02:06:10.151Z,14.72
2022-10-11T02:08:53.439Z,14.72
2022-10-11T02:11:37.166Z,14.69
2022-10-11T02:14:15.507Z,14.67
2022-10-11T02:27:14.142Z,14.69
2022-10-11T02:29:57.189Z,14.67
2022-10-11T02:32:33.123Z,14.69
2022-10-11T02:35:10.162Z,14.70
2022-10-11T02:37:53.262Z,14.66
2022-10-11T02:54:14.162Z,14.66
2022-10-11T02:56:47.211Z,14.67
2022-10-11T02:59:13.958Z,14.67
2022-10-11T03:01:54.236Z,14.67
2022-10-11T03:04:27.385Z,14.69
2022-10-11T03:06:54.123Z,14.67
2022-10-11T03:19:32.137Z,14.64
2022-10-11T03:22:12.155Z,14.64
2022-10-11T03:24:47.112Z,14.63
2022-10-11T03:27:20.213Z,14.64
2022-10-11T03:29:53.240Z,14.64
2022-10-11T03:32:19.805Z,14.66
2022-10-11T03:48:44.801Z,14.66
2022-10-11T03:51:18.196Z,14.67
2022-10-11T03:53:51.166Z,14.67
2022-10-11T03:56:24.256Z,14.68
2022-10-11T03:58:50.865Z,14.67
2022-10-11T04:15:23.179Z,14.65
2022-10-11T04:17:56.188Z,14.66
2022-10-11T04:20:22.993Z,14.63
2022-10-11T04:23:03.137Z,14.63
2022-10-11T04:25:38.498Z,14.61
2022-10-11T04:28:12.213Z,14.60
2022-10-11T04:41:23.162Z,14.51
2022-10-11T04:43:56.583Z,14.50
2022-10-11T04:46:30.150Z,14.51
2022-10-11T04:49:03.335Z,14.48
2022-10-11T04:51:40.208Z,14.47
2022-10-11T04:54:13.501Z,14.47
2022-10-11T05:07:03.122Z,14.37
2022-10-11T05:09:43.153Z,14.37
2022-10-11T05:12:16.206Z,14.35
2022-10-11T05:14:42.749Z,14.34
2022-10-11T05:17:23.174Z,14.31
2022-10-11T05:19:56.271Z,14.30
2022-10-11T05:22:31.186Z,14.28
2022-10-11T05:35:40.158Z,14.19
2022-10-11T05:38:09.050Z,14.18
2022-10-11T05:40:49.125Z,14.18
2022-10-11T05:43:22.135Z,14.15
2022-10-11T05:45:49.099Z,14.13
2022-10-11T05:48:29.179Z,14.11
2022-10-11T06:01:40.267Z,14.07
2022-10-11T06:04:13.149Z,14.07
2022-10-11T06:06:39.689Z,14.07
2022-10-11T06:09:20.145Z,14.08
2022-10-11T06:11:53.157Z,14.06
2022-10-11T06:14:19.698Z,14.06
2022-10-11T06:27:17.131Z,13.97
2022-10-11T06:29:57.162Z,14.00
2022-10-11T06:32:35.158Z,13.99
2022-10-11T06:35:08.143Z,13.97
2022-10-11T06:37:41.209Z,13.95
2022-10-11T06:40:16.162Z,13.91
2022-10-11T06:42:51.186Z,13.89
2022-10-11T06:55:39.113Z,13.87
2022-10-11T06:58:21.188Z,13.88
2022-10-11T07:00:54.255Z,13.88
2022-10-11T07:03:20.830Z,13.86
2022-10-11T07:06:07.454Z,13.85
2022-10-11T07:08:41.892Z,13.86
2022-10-11T07:21:32.111Z,13.80
2022-10-11T07:24:13.152Z,13.81
2022-10-11T07:26:46.205Z,13.81
2022-10-11T07:29:12.786Z,13.80
2022-10-11T07:31:53.144Z,13.82
2022-10-11T07:34:26.277Z,13.83
2022-10-11T07:47:15.118Z,13.79
2022-10-11T07:49:55.134Z,13.78
2022-10-11T07:52:28.273Z,13.79
2022-10-11T07:54:54.806Z,13.79
2022-10-11T07:57:35.113Z,13.80
2022-10-11T08:00:10.370Z,13.77
2022-10-11T08:02:49.245Z,13.78
2022-10-11T08:15:59.158Z,13.79
2022-10-11T08:18:34.123Z,13.78
2022-10-11T08:21:13.161Z,13.79
2022-10-11T08:23:46.442Z,13.79
2022-10-11T08:26:20.155Z,13.81
2022-10-11T08:28:53.441Z,13.84
2022-10-11T08:41:51.096Z,13.88
2022-10-11T08:45:10.082Z,13.90
2022-10-11T08:47:45.235Z,13.93
2022-10-11T08:50:26.158Z,13.96
2022-10-11T08:53:07.654Z,14.00
2022-10-11T09:10:10.146Z,14.12
2022-10-11T09:12:58.161Z,14.14
2022-10-11T09:15:52.135Z,14.18
2022-10-11T09:18:52.402Z,14.22
2022-10-11T09:21:47.138Z,14.23
2022-10-11T09:34:59.136Z,14.43
2022-10-11T09:37:43.977Z,14.47
2022-10-11T09:40:44.108Z,14.52
2022-10-11T09:43:17.824Z,14.57
2022-10-11T09:45:51.133Z,14.64
2022-10-11T09:48:32.082Z,14.75
2022-10-11T10:01:32.127Z,15.32
2022-10-11T10:04:17.652Z,15.44
2022-10-11T10:07:11.102Z,15.53
2022-10-11T10:09:51.146Z,15.64
2022-10-11T10:12:29.297Z,15.75
2022-10-11T10:29:08.152Z,16.16
2022-10-11T10:35:13.142Z,16.31
2022-10-11T10:38:01.836Z,16.37
2022-10-11T10:40:54.110Z,16.49
2022-10-11T10:43:34.519Z,16.57
2022-10-11T10:56:42.099Z,17.23
2022-10-11T10:59:51.154Z,17.38
2022-10-11T11:02:40.704Z,17.45
2022-10-11T11:05:34.361Z,17.45
2022-10-11T11:08:16.694Z,17.44
2022-10-11T11:21:31.273Z,17.64
2022-10-11T11:24:27.138Z,17.71
2022-10-11T11:27:17.209Z,17.77
2022-10-11T11:30:07.148Z,17.83
2022-10-11T11:32:56.537Z,17.87
2022-10-11T11:49:28.138Z,18.16
2022-10-11T11:52:04.259Z,18.18
2022-10-11T11:54:55.161Z,18.25
2022-10-11T11:57:48.370Z,18.34
2022-10-11T12:00:33.130Z,18.40
2022-10-11T12:03:16.022Z,18.46
2022-10-11T12:16:19.089Z,18.56
2022-10-11T12:19:08.141Z,18.63
2022-10-11T12:21:43.891Z,18.66
2022-10-11T12:24:28.135Z,18.71
2022-10-11T12:27:40.650Z,18.67
2022-10-11T12:41:32.093Z,18.32
2022-10-11T12:44:28.248Z,18.35
2022-10-11T12:47:31.616Z,18.36
2022-10-11T12:50:24.117Z,18.36
2022-10-11T12:53:17.039Z,18.33
2022-10-11T13:09:48.931Z,19.27
2022-10-11T13:12:25.895Z,19.63
2022-10-11T13:15:14.118Z,20.01
2022-10-11T13:17:47.730Z,20.07
2022-10-11T13:20:27.124Z,20.24
2022-10-11T13:23:00.461Z,20.80
2022-10-11T13:35:50.082Z,21.32
2022-10-11T13:38:35.173Z,21.07
2022-10-11T13:41:09.725Z,20.72
2022-10-11T13:43:44.152Z,20.49
2022-10-11T13:46:22.699Z,20.22
2022-10-11T13:49:07.109Z,20.02
2022-10-11T14:02:28.133Z,19.48
2022-10-11T14:05:01.337Z,19.47
2022-10-11T14:07:42.129Z,19.49
2022-10-11T14:10:20.203Z,19.53
2022-10-11T14:13:13.185Z,19.61
2022-10-11T14:30:23.506Z,20.44
2022-10-11T14:32:50.119Z,21.07
2022-10-11T14:35:30.986Z,21.62
2022-10-11T14:38:11.139Z,22.10
2022-10-11T14:40:44.176Z,22.57
2022-10-11T14:43:10.730Z,22.98
2022-10-11T14:56:08.617Z,24.27
2022-10-11T14:58:49.127Z,24.24
2022-10-11T15:01:22.337Z,24.26
2022-10-11T15:03:48.952Z,24.27
2022-10-11T15:06:36.125Z,24.21
2022-10-11T15:09:09.693Z,24.06
2022-10-11T15:22:05.110Z,21.69
2022-10-11T15:24:49.348Z,21.32
2022-10-11T15:27:24.334Z,21.10
2022-10-11T15:29:57.127Z,20.90
2022-10-11T15:32:30.156Z,20.67
2022-10-11T15:34:56.809Z,20.42
2022-10-11T15:37:39.117Z,20.20
2022-10-11T15:50:49.143Z,19.26
2022-10-11T15:53:27.572Z,19.13
2022-10-11T15:56:11.146Z,19.00
2022-10-11T15:58:44.271Z,18.89
2022-10-11T16:01:22.173Z,18.78
2022-10-11T16:03:55.205Z,18.65
2022-10-11T16:16:45.101Z,18.16
2022-10-11T16:19:26.754Z,18.07
2022-10-11T16:22:00.174Z,18.00
2022-10-11T16:24:33.138Z,17.92
2022-10-11T16:27:06.374Z,17.83
2022-10-11T16:29:33.012Z,17.76
2022-10-11T16:42:30.094Z,17.42
2022-10-11T16:45:11.117Z,17.38
2022-10-11T16:47:44.419Z,17.32
2022-10-11T16:50:19.134Z,17.27
2022-10-11T16:52:52.873Z,17.19
2022-10-11T16:55:26.137Z,17.16
2022-10-11T16:58:01.144Z,17.10
2022-10-11T17:10:49.081Z,16.90
2022-10-11T17:13:31.138Z,16.87
2022-10-11T17:16:05.734Z,16.82
2022-10-11T17:18:39.121Z,16.77
2022-10-11T17:21:15.577Z,16.73
2022-10-11T17:23:49.837Z,16.69
2022-10-11T17:37:01.101Z,16.51
2022-10-11T17:39:34.158Z,16.47
2022-10-11T17:42:00.697Z,16.43
2022-10-11T17:44:42.133Z,16.41
2022-10-11T17:47:15.347Z,16.39
2022-10-11T17:49:41.916Z,16.36
2022-10-11T18:02:39.084Z,16.24
2022-10-11T18:05:19.152Z,16.21
2022-10-11T18:07:52.430Z,16.17
2022-10-11T18:10:26.162Z,16.16
2022-10-11T18:13:03.048Z,16.14
2022-10-11T18:15:48.176Z,16.11
2022-10-11T18:18:26.213Z,16.10
2022-10-11T18:31:17.764Z,16.01
2022-10-11T18:34:01.132Z,16.00
2022-10-11T18:36:34.165Z,15.94
2022-10-11T18:39:12.159Z,15.90
2022-10-11T18:41:45.170Z,15.89
2022-10-11T18:44:21.120Z,15.90
2022-10-11T18:57:32.114Z,15.79
2022-10-11T19:00:22.465Z,15.74
2022-10-11T19:03:07.142Z,15.72
2022-10-11T19:05:40.294Z,15.74
2022-10-11T19:08:06.842Z,15.73
2022-10-11T19:24:32.144Z,15.60
2022-10-11T19:27:05.297Z,15.60
2022-10-11T19:29:39.821Z,15.60
2022-10-11T19:32:13.193Z,15.58
2022-10-11T19:34:46.107Z,15.55
2022-10-11T19:37:19.289Z,15.52
2022-10-11T19:39:54.102Z,15.49
2022-10-11T19:49:45.094Z,15.43
2022-10-11T19:52:25.115Z,15.39
2022-10-11T19:55:00.178Z,15.38
2022-10-11T19:57:33.425Z,15.36
2022-10-11T20:00:08.721Z,15.31
2022-10-11T20:02:42.114Z,15.28
2022-10-11T20:18:37.901Z,15.19
2022-10-11T20:21:07.670Z,15.19
2022-10-11T20:23:50.127Z,15.19
2022-10-11T20:26:24.634Z,15.21
2022-10-11T20:29:01.139Z,15.17
2022-10-11T20:42:54.115Z,15.06
2022-10-11T20:45:27.150Z,15.07
2022-10-11T20:47:53.701Z,15.05
2022-10-11T20:50:34.102Z,15.03
2022-10-11T20:53:07.163Z,15.02
2022-10-11T20:55:33.758Z,15.02
2022-10-11T20:58:16.118Z,15.03
2022-10-11T21:11:25.106Z,14.92
2022-10-11T21:14:03.604Z,14.91
2022-10-11T21:16:44.102Z,14.89
2022-10-11T21:19:17.158Z,14.87
2022-10-11T21:21:53.636Z,14.85
2022-10-11T21:24:27.274Z,14.83
2022-10-11T21:37:17.075Z,14.73
2022-10-11T21:39:57.834Z,14.72
2022-10-11T21:42:31.239Z,14.69
2022-10-11T21:45:04.096Z,14.68
2022-10-11T21:47:39.126Z,14.64
2022-10-11T22:03:54.098Z,14.52
2022-10-11T22:06:27.128Z,14.51
2022-10-11T22:08:53.669Z,14.48
2022-10-11T22:11:34.139Z,14.46
2022-10-11T22:14:08.890Z,14.44
2022-10-11T22:16:42.114Z,14.42
2022-10-11T22:19:17.069Z,14.39
2022-10-11T22:32:04.076Z,14.26
2022-10-11T22:34:46.154Z,14.26
2022-10-11T22:37:19.140Z,14.22
2022-10-11T22:39:45.678Z,14.20
2022-10-11T22:42:27.696Z,14.19
2022-10-11T22:45:01.302Z,14.20
2022-10-11T22:57:50.082Z,14.09
2022-10-11T23:00:30.094Z,14.08
2022-10-11T23:03:03.541Z,14.03
2022-10-11T23:05:38.104Z,14.00
2022-10-11T23:08:11.213Z,13.97
2022-10-11T23:24:25.126Z,13.88
2022-10-11T23:26:58.142Z,13.88
2022-10-11T23:29:24.702Z,13.87
2022-10-11T23:32:05.099Z,13.84
2022-10-11T23:34:38.269Z,13.83
2022-10-11T23:37:12.165Z,13.81
2022-10-11T23:39:47.226Z,13.82
2022-10-11T23:52:34.061Z,13.76
2022-10-11T23:55:10.080Z,13.74
2022-10-11T23:57:43.097Z,13.71
